sensor_id;sensor_type;location;lat;lon;timestamp;temperature;humidity
18721;DHT22;9489;50.948;3.114;2022-12-11T00:00:51;2.20;99.90
18721;DHT22;9489;50.948;3.114;2022-12-11T00:03:17;2.30;99.90
18721;DHT22;9489;50.948;3.114;2022-12-11T00:05:44;2.30;99.90
18721;DHT22;9489;50.948;3.114;2022-12-11T00:08:10;2.30;99.90
18721;DHT22;9489;50.948;3.114;2022-12-11T00:10:36;2.40;99.90
18721;DHT22;9489;50.948;3.114;2022-12-11T00:13:02;2.30;99.90
18721;DHT22;9489;50.948;3.114;2022-12-11T00:15:27;2.30;99.90
18721;DHT22;9489;50.948;3.114;2022-12-11T00:17:53;2.30;99.90
18721;DHT22;9489;50.948;3.114;2022-12-11T00:20:19;2.40;99.90
18721;DHT22;9489;50.948;3.114;2022-12-11T00:22:45;2.40;99.90
18721;DHT22;9489;50.948;3.114;2022-12-11T00:25:10;2.40;99.90
18721;DHT22;9489;50.948;3.114;2022-12-11T00:27:36;2.40;99.90
18721;DHT22;9489;50.948;3.114;2022-12-11T00:30:02;2.40;99.90
18721;DHT22;9489;50.948;3.114;2022-12-11T00:32:27;2.40;99.90
18721;DHT22;9489;50.948;3.114;2022-12-11T00:34:53;2.30;99.90
18721;DHT22;9489;50.948;3.114;2022-12-11T00:37:19;2.30;99.90
18721;DHT22;9489;50.948;3.114;2022-12-11T00:39:44;2.30;99.90
18721;DHT22;9489;50.948;3.114;2022-12-11T00:42:10;2.30;99.90
18721;DHT22;9489;50.948;3.114;2022-12-11T00:44:36;2.30;99.90
18721;DHT22;9489;50.948;3.114;2022-12-11T00:47:02;2.30;99.90
18721;DHT22;9489;50.948;3.114;2022-12-11T00:49:28;2.30;99.90
18721;DHT22;9489;50.948;3.114;2022-12-11T00:51:54;2.30;99.90
18721;DHT22;9489;50.948;3.114;2022-12-11T00:54:20;2.30;99.90
18721;DHT22;9489;50.948;3.114;2022-12-11T00:56:45;2.30;99.90
18721;DHT22;9489;50.948;3.114;2022-12-11T00:59:11;2.30;99.90
18721;DHT22;9489;50.948;3.114;2022-12-11T01:01:37;2.40;99.90
18721;DHT22;9489;50.948;3.114;2022-12-11T01:04:03;2.40;99.90
18721;DHT22;9489;50.948;3.114;2022-12-11T01:06:29;2.40;99.90
18721;DHT22;9489;50.948;3.114;2022-12-11T01:08:55;2.40;99.90
18721;DHT22;9489;50.948;3.114;2022-12-11T01:11:40;2.30;99.90
18721;DHT22;9489;50.948;3.114;2022-12-11T01:14:06;2.30;99.90
18721;DHT22;9489;50.948;3.114;2022-12-11T01:16:32;2.30;99.90
18721;DHT22;9489;50.948;3.114;2022-12-11T01:18:58;2.20;99.90
18721;DHT22;9489;50.948;3.114;2022-12-11T01:21:24;2.20;99.90
18721;DHT22;9489;50.948;3.114;2022-12-11T01:23:50;2.20;99.90
18721;DHT22;9489;50.948;3.114;2022-12-11T01:26:16;2.20;99.90
18721;DHT22;9489;50.948;3.114;2022-12-11T01:28:42;2.10;99.90
18721;DHT22;9489;50.948;3.114;2022-12-11T01:31:09;2.20;99.90
18721;DHT22;9489;50.948;3.114;2022-12-11T01:33:35;2.20;99.90
18721;DHT22;9489;50.948;3.114;2022-12-11T01:36:06;2.20;99.90
18721;DHT22;9489;50.948;3.114;2022-12-11T01:38:32;2.20;99.90
18721;DHT22;9489;50.948;3.114;2022-12-11T01:40:57;2.10;99.90
18721;DHT22;9489;50.948;3.114;2022-12-11T01:43:23;2.10;99.90
18721;DHT22;9489;50.948;3.114;2022-12-11T01:45:48;2.10;99.90
18721;DHT22;9489;50.948;3.114;2022-12-11T01:48:21;2.10;99.90
18721;DHT22;9489;50.948;3.114;2022-12-11T01:51:04;2.20;99.90
18721;DHT22;9489;50.948;3.114;2022-12-11T01:53:39;2.20;99.90
18721;DHT22;9489;50.948;3.114;2022-12-11T01:56:06;2.10;99.90
18721;DHT22;9489;50.948;3.114;2022-12-11T01:58:37;2.10;99.90
18721;DHT22;9489;50.948;3.114;2022-12-11T02:01:05;2.10;99.90
18721;DHT22;9489;50.948;3.114;2022-12-11T02:03:30;2.10;99.90
18721;DHT22;9489;50.948;3.114;2022-12-11T02:06:00;2.10;99.90
18721;DHT22;9489;50.948;3.114;2022-12-11T02:08:27;2.20;99.90
18721;DHT22;9489;50.948;3.114;2022-12-11T02:11:11;2.20;99.90
18721;DHT22;9489;50.948;3.114;2022-12-11T02:14:09;2.20;99.90
18721;DHT22;9489;50.948;3.114;2022-12-11T02:17:06;2.20;99.90
18721;DHT22;9489;50.948;3.114;2022-12-11T02:19:53;2.20;99.90
18721;DHT22;9489;50.948;3.114;2022-12-11T02:22:52;2.20;99.90
18721;DHT22;9489;50.948;3.114;2022-12-11T02:25:28;2.20;99.90
18721;DHT22;9489;50.948;3.114;2022-12-11T02:28:24;2.20;99.90
18721;DHT22;9489;50.948;3.114;2022-12-11T02:30:57;2.20;99.90
18721;DHT22;9489;50.948;3.114;2022-12-11T02:33:37;2.10;99.90
18721;DHT22;9489;50.948;3.114;2022-12-11T02:36:06;2.10;99.90
18721;DHT22;9489;50.948;3.114;2022-12-11T02:38:35;2.10;99.90
18721;DHT22;9489;50.948;3.114;2022-12-11T02:41:04;2.10;99.90
18721;DHT22;9489;50.948;3.114;2022-12-11T02:43:33;2.20;99.90
18721;DHT22;9489;50.948;3.114;2022-12-11T02:45:59;2.20;99.90
18721;DHT22;9489;50.948;3.114;2022-12-11T02:48:26;2.20;99.90
18721;DHT22;9489;50.948;3.114;2022-12-11T02:50:56;2.20;99.90
18721;DHT22;9489;50.948;3.114;2022-12-11T02:53:25;2.20;99.90
18721;DHT22;9489;50.948;3.114;2022-12-11T02:55:58;2.30;99.90
18721;DHT22;9489;50.948;3.114;2022-12-11T02:58:30;2.30;99.90
18721;DHT22;9489;50.948;3.114;2022-12-11T03:00:56;2.30;99.90
18721;DHT22;9489;50.948;3.114;2022-12-11T03:03:22;2.30;99.90
18721;DHT22;9489;50.948;3.114;2022-12-11T03:05:48;2.20;99.90
18721;DHT22;9489;50.948;3.114;2022-12-11T03:08:14;2.10;99.90
18721;DHT22;9489;50.948;3.114;2022-12-11T03:10:42;2.20;99.90
18721;DHT22;9489;50.948;3.114;2022-12-11T03:13:08;2.10;99.90
18721;DHT22;9489;50.948;3.114;2022-12-11T03:18:39;2.10;99.90
18721;DHT22;9489;50.948;3.114;2022-12-11T03:23:57;2.10;99.90
18721;DHT22;9489;50.948;3.114;2022-12-11T03:26:28;2.00;99.90
18721;DHT22;9489;50.948;3.114;2022-12-11T03:29:01;2.00;99.90
18721;DHT22;9489;50.948;3.114;2022-12-11T03:31:38;2.00;99.90
18721;DHT22;9489;50.948;3.114;2022-12-11T03:34:15;2.00;99.90
18721;DHT22;9489;50.948;3.114;2022-12-11T03:36:43;2.00;99.90
18721;DHT22;9489;50.948;3.114;2022-12-11T03:39:15;2.00;99.90
18721;DHT22;9489;50.948;3.114;2022-12-11T03:41:44;2.00;99.90
18721;DHT22;9489;50.948;3.114;2022-12-11T03:44:11;2.00;99.90
18721;DHT22;9489;50.948;3.114;2022-12-11T03:46:39;2.00;99.90
18721;DHT22;9489;50.948;3.114;2022-12-11T03:49:09;2.00;99.90
18721;DHT22;9489;50.948;3.114;2022-12-11T03:51:37;2.00;99.90
18721;DHT22;9489;50.948;3.114;2022-12-11T03:54:04;2.00;99.90
18721;DHT22;9489;50.948;3.114;2022-12-11T03:56:33;2.00;99.90
18721;DHT22;9489;50.948;3.114;2022-12-11T03:59:00;2.00;99.90
18721;DHT22;9489;50.948;3.114;2022-12-11T04:01:26;2.00;99.90
18721;DHT22;9489;50.948;3.114;2022-12-11T04:03:51;2.00;99.90
18721;DHT22;9489;50.948;3.114;2022-12-11T04:06:17;2.10;99.90
18721;DHT22;9489;50.948;3.114;2022-12-11T04:08:43;2.00;99.90
18721;DHT22;9489;50.948;3.114;2022-12-11T04:11:09;2.00;99.90
18721;DHT22;9489;50.948;3.114;2022-12-11T04:13:53;2.00;99.90
18721;DHT22;9489;50.948;3.114;2022-12-11T04:16:37;2.00;99.90
18721;DHT22;9489;50.948;3.114;2022-12-11T04:19:04;2.00;99.90
18721;DHT22;9489;50.948;3.114;2022-12-11T04:21:48;2.00;99.90
18721;DHT22;9489;50.948;3.114;2022-12-11T04:24:32;2.00;99.90
18721;DHT22;9489;50.948;3.114;2022-12-11T04:26:58;2.10;99.90
18721;DHT22;9489;50.948;3.114;2022-12-11T04:29:23;2.10;99.90
18721;DHT22;9489;50.948;3.114;2022-12-11T04:31:49;2.10;99.90
18721;DHT22;9489;50.948;3.114;2022-12-11T04:34:15;2.10;99.90
18721;DHT22;9489;50.948;3.114;2022-12-11T04:36:41;2.10;99.90
18721;DHT22;9489;50.948;3.114;2022-12-11T04:39:07;2.10;99.90
18721;DHT22;9489;50.948;3.114;2022-12-11T04:41:33;2.00;99.90
18721;DHT22;9489;50.948;3.114;2022-12-11T04:44:00;2.00;99.90
18721;DHT22;9489;50.948;3.114;2022-12-11T04:46:25;2.00;99.90
18721;DHT22;9489;50.948;3.114;2022-12-11T04:48:52;2.00;99.90
18721;DHT22;9489;50.948;3.114;2022-12-11T04:51:18;2.00;99.90
18721;DHT22;9489;50.948;3.114;2022-12-11T04:53:44;2.00;99.90
18721;DHT22;9489;50.948;3.114;2022-12-11T04:56:12;2.00;99.90
18721;DHT22;9489;50.948;3.114;2022-12-11T04:58:38;2.00;99.90
18721;DHT22;9489;50.948;3.114;2022-12-11T05:01:11;2.10;99.90
18721;DHT22;9489;50.948;3.114;2022-12-11T05:03:38;2.00;99.90
18721;DHT22;9489;50.948;3.114;2022-12-11T05:06:04;2.10;99.90
18721;DHT22;9489;50.948;3.114;2022-12-11T05:08:29;2.10;99.90
18721;DHT22;9489;50.948;3.114;2022-12-11T05:10:56;2.10;99.90
18721;DHT22;9489;50.948;3.114;2022-12-11T05:13:22;2.10;99.90
18721;DHT22;9489;50.948;3.114;2022-12-11T05:15:47;2.00;99.90
18721;DHT22;9489;50.948;3.114;2022-12-11T05:18:13;2.10;99.90
18721;DHT22;9489;50.948;3.114;2022-12-11T05:20:39;2.10;99.90
18721;DHT22;9489;50.948;3.114;2022-12-11T05:23:04;2.20;99.90
18721;DHT22;9489;50.948;3.114;2022-12-11T05:25:30;2.10;99.90
18721;DHT22;9489;50.948;3.114;2022-12-11T05:27:55;2.10;99.90
18721;DHT22;9489;50.948;3.114;2022-12-11T05:30:21;2.10;99.90
18721;DHT22;9489;50.948;3.114;2022-12-11T05:32:46;2.00;99.90
18721;DHT22;9489;50.948;3.114;2022-12-11T05:35:12;2.10;99.90
18721;DHT22;9489;50.948;3.114;2022-12-11T05:37:38;2.00;99.90
18721;DHT22;9489;50.948;3.114;2022-12-11T05:40:04;2.00;99.90
18721;DHT22;9489;50.948;3.114;2022-12-11T05:42:32;2.00;99.90
18721;DHT22;9489;50.948;3.114;2022-12-11T05:44:57;2.10;99.90
18721;DHT22;9489;50.948;3.114;2022-12-11T05:47:23;2.10;99.90
18721;DHT22;9489;50.948;3.114;2022-12-11T05:49:48;2.10;99.90
18721;DHT22;9489;50.948;3.114;2022-12-11T05:52:14;2.10;99.90
18721;DHT22;9489;50.948;3.114;2022-12-11T05:54:41;2.10;99.90
18721;DHT22;9489;50.948;3.114;2022-12-11T05:57:06;2.10;99.90
18721;DHT22;9489;50.948;3.114;2022-12-11T05:59:32;2.00;99.90
18721;DHT22;9489;50.948;3.114;2022-12-11T06:01:58;1.90;99.90
18721;DHT22;9489;50.948;3.114;2022-12-11T06:04:23;1.90;99.90
18721;DHT22;9489;50.948;3.114;2022-12-11T06:06:49;1.90;99.90
18721;DHT22;9489;50.948;3.114;2022-12-11T06:09:15;2.00;99.90
18721;DHT22;9489;50.948;3.114;2022-12-11T06:11:41;1.90;99.90
18721;DHT22;9489;50.948;3.114;2022-12-11T06:14:09;1.80;99.90
18721;DHT22;9489;50.948;3.114;2022-12-11T06:16:35;1.70;99.90
18721;DHT22;9489;50.948;3.114;2022-12-11T06:19:01;1.80;99.90
18721;DHT22;9489;50.948;3.114;2022-12-11T06:21:29;1.80;99.90
18721;DHT22;9489;50.948;3.114;2022-12-11T06:23:56;1.80;99.90
18721;DHT22;9489;50.948;3.114;2022-12-11T06:26:23;1.80;99.90
18721;DHT22;9489;50.948;3.114;2022-12-11T06:28:49;1.80;99.90
18721;DHT22;9489;50.948;3.114;2022-12-11T06:31:15;1.70;99.90
18721;DHT22;9489;50.948;3.114;2022-12-11T06:33:41;1.70;99.90
18721;DHT22;9489;50.948;3.114;2022-12-11T06:36:09;1.70;99.90
18721;DHT22;9489;50.948;3.114;2022-12-11T06:38:36;1.70;99.90
18721;DHT22;9489;50.948;3.114;2022-12-11T06:41:03;1.70;99.90
18721;DHT22;9489;50.948;3.114;2022-12-11T06:43:33;1.70;99.90
18721;DHT22;9489;50.948;3.114;2022-12-11T06:45:59;1.70;99.90
18721;DHT22;9489;50.948;3.114;2022-12-11T06:48:27;1.70;99.90
18721;DHT22;9489;50.948;3.114;2022-12-11T06:50:53;1.70;99.90
18721;DHT22;9489;50.948;3.114;2022-12-11T06:53:19;1.60;99.90
18721;DHT22;9489;50.948;3.114;2022-12-11T06:55:44;1.60;99.90
18721;DHT22;9489;50.948;3.114;2022-12-11T06:58:10;1.70;99.90
18721;DHT22;9489;50.948;3.114;2022-12-11T07:00:37;1.60;99.90
18721;DHT22;9489;50.948;3.114;2022-12-11T07:03:02;1.60;99.90
18721;DHT22;9489;50.948;3.114;2022-12-11T07:05:29;1.70;99.90
18721;DHT22;9489;50.948;3.114;2022-12-11T07:07:55;1.60;99.90
18721;DHT22;9489;50.948;3.114;2022-12-11T07:10:21;1.60;99.90
18721;DHT22;9489;50.948;3.114;2022-12-11T07:12:47;1.60;99.90
18721;DHT22;9489;50.948;3.114;2022-12-11T07:15:13;1.50;99.90
18721;DHT22;9489;50.948;3.114;2022-12-11T07:17:38;1.60;99.90
18721;DHT22;9489;50.948;3.114;2022-12-11T07:20:06;1.60;99.90
18721;DHT22;9489;50.948;3.114;2022-12-11T07:22:35;1.60;99.90
18721;DHT22;9489;50.948;3.114;2022-12-11T07:25:00;1.60;99.90
18721;DHT22;9489;50.948;3.114;2022-12-11T07:27:26;1.60;99.90
18721;DHT22;9489;50.948;3.114;2022-12-11T07:29:52;1.60;99.90
18721;DHT22;9489;50.948;3.114;2022-12-11T07:32:20;1.60;99.90
18721;DHT22;9489;50.948;3.114;2022-12-11T07:34:47;1.60;99.90
18721;DHT22;9489;50.948;3.114;2022-12-11T07:37:13;1.60;99.90
18721;DHT22;9489;50.948;3.114;2022-12-11T07:39:38;1.60;99.90
18721;DHT22;9489;50.948;3.114;2022-12-11T07:42:04;1.70;99.90
18721;DHT22;9489;50.948;3.114;2022-12-11T07:44:30;1.70;99.90
18721;DHT22;9489;50.948;3.114;2022-12-11T07:46:55;1.70;99.90
18721;DHT22;9489;50.948;3.114;2022-12-11T07:49:21;1.60;99.90
18721;DHT22;9489;50.948;3.114;2022-12-11T07:51:46;1.70;99.90
18721;DHT22;9489;50.948;3.114;2022-12-11T07:54:13;1.70;99.90
18721;DHT22;9489;50.948;3.114;2022-12-11T07:56:42;1.60;99.90
18721;DHT22;9489;50.948;3.114;2022-12-11T07:59:08;1.60;99.90
18721;DHT22;9489;50.948;3.114;2022-12-11T08:01:36;1.50;99.90
18721;DHT22;9489;50.948;3.114;2022-12-11T08:04:03;1.50;99.90
18721;DHT22;9489;50.948;3.114;2022-12-11T08:06:31;1.40;99.90
18721;DHT22;9489;50.948;3.114;2022-12-11T08:08:59;1.40;99.90
18721;DHT22;9489;50.948;3.114;2022-12-11T08:11:26;1.40;99.90
18721;DHT22;9489;50.948;3.114;2022-12-11T08:13:52;1.50;99.90
18721;DHT22;9489;50.948;3.114;2022-12-11T08:16:18;1.50;99.90
18721;DHT22;9489;50.948;3.114;2022-12-11T08:18:45;1.40;99.90
18721;DHT22;9489;50.948;3.114;2022-12-11T08:21:17;1.40;99.90
18721;DHT22;9489;50.948;3.114;2022-12-11T08:23:44;1.40;99.90
18721;DHT22;9489;50.948;3.114;2022-12-11T08:26:13;1.30;99.90
18721;DHT22;9489;50.948;3.114;2022-12-11T08:28:39;1.40;99.90
18721;DHT22;9489;50.948;3.114;2022-12-11T08:31:06;1.40;99.90
18721;DHT22;9489;50.948;3.114;2022-12-11T08:33:33;1.50;99.90
18721;DHT22;9489;50.948;3.114;2022-12-11T08:36:02;1.40;99.90
18721;DHT22;9489;50.948;3.114;2022-12-11T08:38:28;1.40;99.90
18721;DHT22;9489;50.948;3.114;2022-12-11T08:40:53;1.50;99.90
18721;DHT22;9489;50.948;3.114;2022-12-11T08:43:19;1.50;99.90
18721;DHT22;9489;50.948;3.114;2022-12-11T08:45:45;1.60;99.90
18721;DHT22;9489;50.948;3.114;2022-12-11T08:48:11;1.60;99.90
18721;DHT22;9489;50.948;3.114;2022-12-11T08:50:36;1.60;99.90
18721;DHT22;9489;50.948;3.114;2022-12-11T08:53:02;1.70;99.90
18721;DHT22;9489;50.948;3.114;2022-12-11T08:55:28;1.70;99.90
18721;DHT22;9489;50.948;3.114;2022-12-11T08:57:53;1.80;99.90
18721;DHT22;9489;50.948;3.114;2022-12-11T09:00:19;1.70;99.90
18721;DHT22;9489;50.948;3.114;2022-12-11T09:02:46;1.70;99.90
18721;DHT22;9489;50.948;3.114;2022-12-11T09:05:11;1.70;99.90
18721;DHT22;9489;50.948;3.114;2022-12-11T09:07:37;1.60;99.90
18721;DHT22;9489;50.948;3.114;2022-12-11T09:10:05;1.70;99.90
18721;DHT22;9489;50.948;3.114;2022-12-11T09:12:32;1.70;99.90
18721;DHT22;9489;50.948;3.114;2022-12-11T09:14:58;1.70;99.90
18721;DHT22;9489;50.948;3.114;2022-12-11T09:17:25;1.70;99.90
18721;DHT22;9489;50.948;3.114;2022-12-11T09:19:50;1.70;99.90
18721;DHT22;9489;50.948;3.114;2022-12-11T09:22:16;1.70;99.90
18721;DHT22;9489;50.948;3.114;2022-12-11T09:24:42;1.70;99.90
18721;DHT22;9489;50.948;3.114;2022-12-11T09:27:07;1.70;99.90
18721;DHT22;9489;50.948;3.114;2022-12-11T09:29:33;1.70;99.90
18721;DHT22;9489;50.948;3.114;2022-12-11T09:31:59;1.70;99.90
18721;DHT22;9489;50.948;3.114;2022-12-11T09:34:24;1.70;99.90
18721;DHT22;9489;50.948;3.114;2022-12-11T09:36:50;1.60;99.90
18721;DHT22;9489;50.948;3.114;2022-12-11T09:39:16;1.60;99.90
18721;DHT22;9489;50.948;3.114;2022-12-11T09:41:51;1.60;99.90
18721;DHT22;9489;50.948;3.114;2022-12-11T09:44:39;1.60;99.90
18721;DHT22;9489;50.948;3.114;2022-12-11T09:47:25;1.60;99.90
18721;DHT22;9489;50.948;3.114;2022-12-11T09:55:19;1.60;99.90
18721;DHT22;9489;50.948;3.114;2022-12-11T10:00:50;1.50;99.90
18721;DHT22;9489;50.948;3.114;2022-12-11T10:03:21;1.40;99.90
18721;DHT22;9489;50.948;3.114;2022-12-11T10:14:25;1.50;99.90
18721;DHT22;9489;50.948;3.114;2022-12-11T10:17:19;1.50;99.90
18721;DHT22;9489;50.948;3.114;2022-12-11T10:19:46;1.60;99.90
18721;DHT22;9489;50.948;3.114;2022-12-11T10:22:21;1.60;99.90
18721;DHT22;9489;50.948;3.114;2022-12-11T10:24:57;1.70;99.90
18721;DHT22;9489;50.948;3.114;2022-12-11T10:27:28;1.70;99.90
18721;DHT22;9489;50.948;3.114;2022-12-11T10:30:17;1.80;99.90
18721;DHT22;9489;50.948;3.114;2022-12-11T10:35:30;1.80;99.90
18721;DHT22;9489;50.948;3.114;2022-12-11T10:40:38;1.80;99.90
18721;DHT22;9489;50.948;3.114;2022-12-11T10:43:05;1.70;99.90
18721;DHT22;9489;50.948;3.114;2022-12-11T10:45:31;1.70;99.90
18721;DHT22;9489;50.948;3.114;2022-12-11T10:48:05;1.60;99.90
18721;DHT22;9489;50.948;3.114;2022-12-11T10:50:31;1.60;99.90
18721;DHT22;9489;50.948;3.114;2022-12-11T10:52:57;1.60;99.90
18721;DHT22;9489;50.948;3.114;2022-12-11T10:55:47;1.70;99.90
18721;DHT22;9489;50.948;3.114;2022-12-11T10:58:18;1.70;99.90
18721;DHT22;9489;50.948;3.114;2022-12-11T11:00:45;1.80;99.90
18721;DHT22;9489;50.948;3.114;2022-12-11T11:03:25;1.90;99.90
18721;DHT22;9489;50.948;3.114;2022-12-11T11:06:03;1.90;99.90
18721;DHT22;9489;50.948;3.114;2022-12-11T11:08:41;1.90;99.90
18721;DHT22;9489;50.948;3.114;2022-12-11T11:11:35;1.90;99.90
18721;DHT22;9489;50.948;3.114;2022-12-11T11:16:37;2.00;99.90
18721;DHT22;9489;50.948;3.114;2022-12-11T11:19:04;2.00;99.90
18721;DHT22;9489;50.948;3.114;2022-12-11T11:21:33;2.10;99.90
18721;DHT22;9489;50.948;3.114;2022-12-11T11:23:59;2.00;99.90
18721;DHT22;9489;50.948;3.114;2022-12-11T11:26:25;2.00;99.90
18721;DHT22;9489;50.948;3.114;2022-12-11T11:28:55;1.90;99.90
18721;DHT22;9489;50.948;3.114;2022-12-11T11:31:41;2.00;99.90
18721;DHT22;9489;50.948;3.114;2022-12-11T11:34:13;1.90;99.90
18721;DHT22;9489;50.948;3.114;2022-12-11T11:36:40;1.90;99.90
18721;DHT22;9489;50.948;3.114;2022-12-11T11:39:30;1.90;99.90
18721;DHT22;9489;50.948;3.114;2022-12-11T11:42:14;1.90;99.90
18721;DHT22;9489;50.948;3.114;2022-12-11T11:47:18;1.90;99.90
18721;DHT22;9489;50.948;3.114;2022-12-11T11:52:32;1.90;99.90
18721;DHT22;9489;50.948;3.114;2022-12-11T11:57:34;1.90;99.90
18721;DHT22;9489;50.948;3.114;2022-12-11T12:00:21;1.90;99.90
18721;DHT22;9489;50.948;3.114;2022-12-11T12:02:48;1.80;99.90
18721;DHT22;9489;50.948;3.114;2022-12-11T12:05:26;1.80;99.90
18721;DHT22;9489;50.948;3.114;2022-12-11T12:08:13;1.90;99.90
18721;DHT22;9489;50.948;3.114;2022-12-11T12:11:19;1.90;99.90
18721;DHT22;9489;50.948;3.114;2022-12-11T12:16:42;1.80;99.90
18721;DHT22;9489;50.948;3.114;2022-12-11T12:19:47;1.90;99.90
18721;DHT22;9489;50.948;3.114;2022-12-11T12:30:34;2.00;99.90
18721;DHT22;9489;50.948;3.114;2022-12-11T12:35:39;2.00;99.90
18721;DHT22;9489;50.948;3.114;2022-12-11T12:38:15;2.00;99.90
18721;DHT22;9489;50.948;3.114;2022-12-11T12:43:51;2.00;99.90
18721;DHT22;9489;50.948;3.114;2022-12-11T12:49:14;2.00;99.90
18721;DHT22;9489;50.948;3.114;2022-12-11T12:51:41;2.10;99.90
18721;DHT22;9489;50.948;3.114;2022-12-11T12:54:13;2.20;99.90
18721;DHT22;9489;50.948;3.114;2022-12-11T12:56:39;2.10;99.90
18721;DHT22;9489;50.948;3.114;2022-12-11T12:59:22;2.10;99.90
18721;DHT22;9489;50.948;3.114;2022-12-11T13:02:00;2.00;99.90
18721;DHT22;9489;50.948;3.114;2022-12-11T13:07:10;2.10;99.90
18721;DHT22;9489;50.948;3.114;2022-12-11T13:09:37;2.20;99.90
18721;DHT22;9489;50.948;3.114;2022-12-11T13:12:14;2.20;99.90
18721;DHT22;9489;50.948;3.114;2022-12-11T13:14:40;2.20;99.90
18721;DHT22;9489;50.948;3.114;2022-12-11T13:17:23;2.20;99.90
18721;DHT22;9489;50.948;3.114;2022-12-11T13:20:01;2.20;99.90
18721;DHT22;9489;50.948;3.114;2022-12-11T13:22:33;2.30;99.90
18721;DHT22;9489;50.948;3.114;2022-12-11T13:25:01;2.20;99.90
18721;DHT22;9489;50.948;3.114;2022-12-11T13:27:41;2.20;99.90
18721;DHT22;9489;50.948;3.114;2022-12-11T13:32:41;2.30;99.90
18721;DHT22;9489;50.948;3.114;2022-12-11T13:35:14;2.20;99.90
18721;DHT22;9489;50.948;3.114;2022-12-11T13:37:45;2.30;99.90
18721;DHT22;9489;50.948;3.114;2022-12-11T13:40:18;2.20;99.90
18721;DHT22;9489;50.948;3.114;2022-12-11T13:42:54;2.10;99.90
18721;DHT22;9489;50.948;3.114;2022-12-11T13:48:32;2.10;99.90
18721;DHT22;9489;50.948;3.114;2022-12-11T13:50:58;2.00;99.90
18721;DHT22;9489;50.948;3.114;2022-12-11T13:53:25;1.90;99.90
18721;DHT22;9489;50.948;3.114;2022-12-11T13:56:05;1.90;99.90
18721;DHT22;9489;50.948;3.114;2022-12-11T13:58:33;2.00;99.90
18721;DHT22;9489;50.948;3.114;2022-12-11T14:01:06;1.90;99.90
18721;DHT22;9489;50.948;3.114;2022-12-11T14:03:33;2.00;99.90
18721;DHT22;9489;50.948;3.114;2022-12-11T14:06:00;2.00;99.90
18721;DHT22;9489;50.948;3.114;2022-12-11T14:08:32;2.00;99.90
18721;DHT22;9489;50.948;3.114;2022-12-11T14:10:59;2.00;99.90
18721;DHT22;9489;50.948;3.114;2022-12-11T14:13:28;2.00;99.90
18721;DHT22;9489;50.948;3.114;2022-12-11T14:15:55;2.00;99.90
18721;DHT22;9489;50.948;3.114;2022-12-11T14:18:27;2.00;99.90
18721;DHT22;9489;50.948;3.114;2022-12-11T14:21:00;2.00;99.90
18721;DHT22;9489;50.948;3.114;2022-12-11T14:23:28;1.90;99.90
18721;DHT22;9489;50.948;3.114;2022-12-11T14:25:59;2.00;99.90
18721;DHT22;9489;50.948;3.114;2022-12-11T14:28:27;2.00;99.90
18721;DHT22;9489;50.948;3.114;2022-12-11T14:30:56;2.00;99.90
18721;DHT22;9489;50.948;3.114;2022-12-11T14:33:27;2.00;99.90
18721;DHT22;9489;50.948;3.114;2022-12-11T14:35:55;1.90;99.90
18721;DHT22;9489;50.948;3.114;2022-12-11T14:38:26;1.90;99.90
18721;DHT22;9489;50.948;3.114;2022-12-11T14:40:56;1.90;99.90
18721;DHT22;9489;50.948;3.114;2022-12-11T14:43:31;1.90;99.90
18721;DHT22;9489;50.948;3.114;2022-12-11T14:46:01;1.90;99.90
18721;DHT22;9489;50.948;3.114;2022-12-11T14:48:54;1.80;99.90
18721;DHT22;9489;50.948;3.114;2022-12-11T14:51:21;1.70;99.90
18721;DHT22;9489;50.948;3.114;2022-12-11T14:53:49;1.70;99.90
18721;DHT22;9489;50.948;3.114;2022-12-11T14:56:19;1.70;99.90
18721;DHT22;9489;50.948;3.114;2022-12-11T14:58:56;1.80;99.90
18721;DHT22;9489;50.948;3.114;2022-12-11T15:01:31;1.80;99.90
18721;DHT22;9489;50.948;3.114;2022-12-11T15:04:25;1.70;99.90
18721;DHT22;9489;50.948;3.114;2022-12-11T15:06:51;1.70;99.90
18721;DHT22;9489;50.948;3.114;2022-12-11T15:09:36;1.80;99.90
18721;DHT22;9489;50.948;3.114;2022-12-11T15:12:11;1.80;99.90
18721;DHT22;9489;50.948;3.114;2022-12-11T15:14:56;1.80;99.90
18721;DHT22;9489;50.948;3.114;2022-12-11T15:17:24;1.90;99.90
18721;DHT22;9489;50.948;3.114;2022-12-11T15:19:52;1.90;99.90
18721;DHT22;9489;50.948;3.114;2022-12-11T15:22:21;1.90;99.90
18721;DHT22;9489;50.948;3.114;2022-12-11T15:24:52;1.90;99.90
18721;DHT22;9489;50.948;3.114;2022-12-11T15:29:53;1.90;99.90
18721;DHT22;9489;50.948;3.114;2022-12-11T15:32:20;1.80;99.90
18721;DHT22;9489;50.948;3.114;2022-12-11T15:34:57;1.80;99.90
18721;DHT22;9489;50.948;3.114;2022-12-11T15:37:25;1.70;99.90
18721;DHT22;9489;50.948;3.114;2022-12-11T15:39:52;1.70;99.90
18721;DHT22;9489;50.948;3.114;2022-12-11T15:42:24;1.70;99.90
18721;DHT22;9489;50.948;3.114;2022-12-11T15:44:50;1.70;99.90
18721;DHT22;9489;50.948;3.114;2022-12-11T15:47:21;1.70;99.90
18721;DHT22;9489;50.948;3.114;2022-12-11T15:49:47;1.50;99.90
18721;DHT22;9489;50.948;3.114;2022-12-11T15:52:12;1.50;99.90
18721;DHT22;9489;50.948;3.114;2022-12-11T15:54:38;1.50;99.90
18721;DHT22;9489;50.948;3.114;2022-12-11T15:57:05;1.50;99.90
18721;DHT22;9489;50.948;3.114;2022-12-11T15:59:32;1.50;99.90
18721;DHT22;9489;50.948;3.114;2022-12-11T16:01:58;1.50;99.90
18721;DHT22;9489;50.948;3.114;2022-12-11T16:04:24;1.40;99.90
18721;DHT22;9489;50.948;3.114;2022-12-11T16:06:50;1.40;99.90
18721;DHT22;9489;50.948;3.114;2022-12-11T16:09:15;1.30;99.90
18721;DHT22;9489;50.948;3.114;2022-12-11T16:11:41;1.30;99.90
18721;DHT22;9489;50.948;3.114;2022-12-11T16:14:07;1.20;99.90
18721;DHT22;9489;50.948;3.114;2022-12-11T16:16:32;1.20;99.90
18721;DHT22;9489;50.948;3.114;2022-12-11T16:18:58;1.20;99.90
18721;DHT22;9489;50.948;3.114;2022-12-11T16:21:23;1.20;99.90
18721;DHT22;9489;50.948;3.114;2022-12-11T16:23:49;1.20;99.90
18721;DHT22;9489;50.948;3.114;2022-12-11T16:26:15;1.30;99.90
18721;DHT22;9489;50.948;3.114;2022-12-11T16:28:41;1.30;99.90
18721;DHT22;9489;50.948;3.114;2022-12-11T16:31:12;1.30;99.90
18721;DHT22;9489;50.948;3.114;2022-12-11T16:33:38;1.30;99.90
18721;DHT22;9489;50.948;3.114;2022-12-11T16:36:15;1.30;99.90
18721;DHT22;9489;50.948;3.114;2022-12-11T16:38:47;1.30;99.90
18721;DHT22;9489;50.948;3.114;2022-12-11T16:41:13;1.30;99.90
18721;DHT22;9489;50.948;3.114;2022-12-11T16:43:38;1.30;99.90
18721;DHT22;9489;50.948;3.114;2022-12-11T16:46:04;1.20;99.90
18721;DHT22;9489;50.948;3.114;2022-12-11T16:48:31;1.20;99.90
18721;DHT22;9489;50.948;3.114;2022-12-11T16:50:56;1.20;99.90
18721;DHT22;9489;50.948;3.114;2022-12-11T16:53:23;1.30;99.90
18721;DHT22;9489;50.948;3.114;2022-12-11T16:55:49;1.30;99.90
18721;DHT22;9489;50.948;3.114;2022-12-11T16:58:14;1.30;99.90
18721;DHT22;9489;50.948;3.114;2022-12-11T17:00:45;1.30;99.90
18721;DHT22;9489;50.948;3.114;2022-12-11T17:03:11;1.30;99.90
18721;DHT22;9489;50.948;3.114;2022-12-11T17:05:41;1.30;99.90
18721;DHT22;9489;50.948;3.114;2022-12-11T17:08:07;1.30;99.90
18721;DHT22;9489;50.948;3.114;2022-12-11T17:10:33;1.20;99.90
18721;DHT22;9489;50.948;3.114;2022-12-11T17:12:58;1.20;99.90
18721;DHT22;9489;50.948;3.114;2022-12-11T17:15:24;1.30;99.90
18721;DHT22;9489;50.948;3.114;2022-12-11T17:17:50;1.30;99.90
18721;DHT22;9489;50.948;3.114;2022-12-11T17:20:16;1.30;99.90
18721;DHT22;9489;50.948;3.114;2022-12-11T17:22:42;1.20;99.90
18721;DHT22;9489;50.948;3.114;2022-12-11T17:25:08;1.20;99.90